createdAt,value
2022-08-02T00:02:20.954Z,100441.81
2022-08-02T00:04:47.750Z,100437.03
2022-08-02T00:07:15.695Z,100434.50
2022-08-02T00:09:42.590Z,100443.78
2022-08-02T00:12:09.905Z,100444.53
2022-08-02T00:14:37.279Z,100451.47
2022-08-02T00:17:05.083Z,100455.72
2022-08-02T00:19:31.651Z,100447.97
2022-08-02T00:21:58.211Z,100444.06
2022-08-02T00:24:31.237Z,100444.41
2022-08-02T00:26:58.258Z,100438.88
2022-08-02T00:29:25.190Z,100452.03
2022-08-02T00:31:51.706Z,100455.91
2022-08-02T00:34:28.847Z,100450.50
2022-08-02T00:36:58.131Z,100450.75
2022-08-02T00:39:34.891Z,100447.09
2022-08-02T00:42:03.194Z,100448.13
2022-08-02T00:44:29.697Z,100452.53
2022-08-02T00:46:56.238Z,100446.00
2022-08-02T00:49:22.765Z,100451.06
2022-08-02T00:51:49.301Z,100446.22
2022-08-02T00:54:15.972Z,100445.84
2022-08-02T00:56:50.916Z,100449.31
2022-08-02T00:59:18.502Z,100443.25
2022-08-02T01:01:56.176Z,100448.44
2022-08-02T01:04:30.710Z,100448.38
2022-08-02T01:07:00.187Z,100452.03
2022-08-02T01:09:26.790Z,100444.63
2022-08-02T01:11:53.652Z,100449.19
2022-08-02T01:14:26.029Z,100447.66
2022-08-02T01:17:16.313Z,100453.72
2022-08-02T01:19:56.354Z,100441.16
2022-08-02T01:22:58.558Z,100444.53
2022-08-02T01:25:44.889Z,100442.81
2022-08-02T01:28:33.395Z,100439.31
2022-08-02T01:31:07.939Z,100440.06
2022-08-02T01:33:44.418Z,100441.34
2022-08-02T01:36:14.129Z,100438.00
2022-08-02T01:38:45.035Z,100441.44
2022-08-02T01:41:18.029Z,100437.63
2022-08-02T01:43:46.453Z,100450.31
2022-08-02T01:46:15.194Z,100448.94
2022-08-02T01:48:45.029Z,100441.91
2022-08-02T01:51:16.939Z,100444.19
2022-08-02T01:53:46.979Z,100446.84
2022-08-02T01:56:15.838Z,100451.38
2022-08-02T01:58:44.296Z,100448.09
2022-08-02T02:01:14.692Z,100441.84
2022-08-02T02:03:46.544Z,100449.09
2022-08-02T02:06:14.087Z,100449.66
2022-08-02T02:08:43.556Z,100452.75
2022-08-02T02:12:05.885Z,100449.09
2022-08-02T02:14:02.123Z,100445.03
2022-08-02T02:16:29.026Z,100448.25
2022-08-02T02:18:55.567Z,100444.31
2022-08-02T02:21:22.375Z,100446.41
2022-08-02T02:23:50.036Z,100442.63
2022-08-02T02:26:27.626Z,100439.25
2022-08-02T02:29:01.427Z,100438.03
2022-08-02T02:31:32.650Z,100435.16
2022-08-02T02:34:09.817Z,100440.34
2022-08-02T02:36:39.886Z,100435.66
2022-08-02T02:39:13.082Z,100448.44
2022-08-02T02:41:41.474Z,100447.81
2022-08-02T02:44:11.142Z,100442.69
2022-08-02T02:46:38.308Z,100440.53
2022-08-02T02:49:05.417Z,100437.84
2022-08-02T02:51:32.950Z,100440.72
2022-08-02T02:54:29.812Z,100437.44
2022-08-02T02:56:47.203Z,100441.75
2022-08-02T02:59:15.276Z,100445.31
2022-08-02T03:01:57.322Z,100448.50
2022-08-02T03:04:27.026Z,100452.81
2022-08-02T03:06:53.919Z,100444.06
2022-08-02T03:09:20.919Z,100445.50
2022-08-02T03:11:48.304Z,100448.63
2022-08-02T03:14:15.811Z,100449.78
2022-08-02T03:16:44.788Z,100439.69
2022-08-02T03:19:11.538Z,100439.59
2022-08-02T03:21:38.487Z,100436.22
2022-08-02T03:24:05.870Z,100435.50
2022-08-02T03:26:32.378Z,100429.06
2022-08-02T03:28:58.851Z,100434.25
2022-08-02T03:31:25.349Z,100431.25
2022-08-02T03:33:52.371Z,100431.78
2022-08-02T03:36:22.926Z,100435.50
2022-08-02T03:38:51.279Z,100438.84
2022-08-02T03:41:19.071Z,100444.06
2022-08-02T03:43:46.940Z,100439.00
2022-08-02T03:46:15.837Z,100445.16
2022-08-02T03:48:42.796Z,100445.00
2022-08-02T03:51:10.771Z,100441.75
2022-08-02T03:53:37.807Z,100440.50
2022-08-02T03:56:06.010Z,100440.66
2022-08-02T03:58:33.331Z,100434.97
2022-08-02T04:01:00.181Z,100437.31
2022-08-02T04:03:26.829Z,100437.16
2022-08-02T04:06:03.308Z,100444.22
2022-08-02T04:08:36.803Z,100440.03
2022-08-02T04:11:23.506Z,100428.88
2022-08-02T04:13:50.318Z,100424.59
2022-08-02T04:16:29.098Z,100430.09
2022-08-02T04:18:58.147Z,100444.34
2022-08-02T04:21:50.315Z,100440.25
2022-08-02T04:24:24.749Z,100446.97
2022-08-02T04:26:57.855Z,100440.19
2022-08-02T04:29:31.854Z,100451.94
2022-08-02T04:31:59.539Z,100449.25
2022-08-02T04:34:26.187Z,100451.19
2022-08-02T04:36:52.902Z,100453.09
2022-08-02T04:39:19.694Z,100456.63
2022-08-02T04:41:47.841Z,100454.72
2022-08-02T04:44:14.411Z,100466.81
2022-08-02T04:46:43.023Z,100463.84
2022-08-02T04:49:09.978Z,100472.28
2022-08-02T04:51:41.095Z,100473.94
2022-08-02T04:54:10.429Z,100475.66
2022-08-02T04:56:40.669Z,100486.94
2022-08-02T04:59:07.491Z,100479.97
2022-08-02T05:01:35.814Z,100483.75
2022-08-02T05:04:02.811Z,100480.63
2022-08-02T05:06:29.389Z,100490.84
2022-08-02T05:08:55.913Z,100488.63
2022-08-02T05:11:36.146Z,100484.88
2022-08-02T05:14:05.124Z,100485.38
2022-08-02T05:16:32.344Z,100493.00
2022-08-02T05:19:02.283Z,100490.28
2022-08-02T05:21:29.758Z,100495.56
2022-08-02T05:23:56.291Z,100486.31
2022-08-02T05:26:22.756Z,100483.91
2022-08-02T05:28:49.731Z,100485.59
2022-08-02T05:31:16.204Z,100484.28
2022-08-02T05:33:43.016Z,100483.34
2022-08-02T05:36:09.769Z,100486.44
2022-08-02T05:38:37.457Z,100493.44
2022-08-02T05:41:05.432Z,100488.28
2022-08-02T05:43:32.140Z,100488.28
2022-08-02T05:45:58.710Z,100495.97
2022-08-02T05:48:29.296Z,100482.88
2022-08-02T05:51:11.551Z,100490.97
2022-08-02T05:53:55.312Z,100494.75
2022-08-02T05:56:38.783Z,100481.72
2022-08-02T05:59:31.926Z,100480.28
2022-08-02T06:02:04.553Z,100484.81
2022-08-02T06:04:48.399Z,100485.84
2022-08-02T06:07:18.406Z,100487.09
2022-08-02T06:09:46.691Z,100493.50
2022-08-02T06:12:16.369Z,100492.94
2022-08-02T06:14:43.367Z,100490.50
2022-08-02T06:17:10.659Z,100496.59
2022-08-02T06:19:51.667Z,100501.38
2022-08-02T06:22:35.079Z,100500.69
2022-08-02T06:25:05.689Z,100501.75
2022-08-02T06:27:33.955Z,100494.72
2022-08-02T06:30:02.424Z,100500.63
2022-08-02T06:32:28.892Z,100504.03
2022-08-02T06:34:55.479Z,100498.63
2022-08-02T06:37:27.953Z,100509.50
2022-08-02T06:40:35.575Z,100515.41
2022-08-02T06:43:06.727Z,100505.09
2022-08-02T06:45:34.846Z,100513.47
2022-08-02T06:48:01.963Z,100515.13
2022-08-02T06:50:28.582Z,100514.19
2022-08-02T06:52:55.139Z,100507.28
2022-08-02T06:55:21.787Z,100501.69
2022-08-02T06:57:48.357Z,100501.03
2022-08-02T07:00:15.229Z,100495.97
2022-08-02T07:02:41.967Z,100490.22
2022-08-02T07:05:09.400Z,100496.59
2022-08-02T07:07:36.030Z,100484.91
2022-08-02T07:10:02.555Z,100492.44
2022-08-02T07:12:30.834Z,100495.28
2022-08-02T07:14:58.762Z,100491.69
2022-08-02T07:17:25.726Z,100491.13
2022-08-02T07:19:52.228Z,100492.88
2022-08-02T07:22:20.242Z,100494.34
2022-08-02T07:24:46.665Z,100476.75
2022-08-02T07:27:13.608Z,100484.00
2022-08-02T07:29:44.994Z,100478.47
2022-08-02T07:32:13.028Z,100479.72
2022-08-02T07:34:39.858Z,100473.41
2022-08-02T07:37:18.667Z,100472.53
2022-08-02T07:39:56.008Z,100476.47
2022-08-02T07:42:23.281Z,100473.13
2022-08-02T07:44:50.342Z,100473.34
2022-08-02T07:47:17.047Z,100477.19
2022-08-02T07:49:43.611Z,100475.81
2022-08-02T07:52:10.724Z,100474.22
2022-08-02T07:54:37.312Z,100470.97
2022-08-02T07:57:04.278Z,100465.16
2022-08-02T07:59:30.742Z,100465.56
2022-08-02T08:01:57.424Z,100465.25
2022-08-02T08:04:24.040Z,100465.25
2022-08-02T08:06:52.637Z,100465.44
2022-08-02T08:09:20.235Z,100463.34
2022-08-02T08:11:47.167Z,100464.81
2022-08-02T08:14:16.873Z,100461.16
2022-08-02T08:16:43.899Z,100458.09
2022-08-02T08:19:10.450Z,100461.47
2022-08-02T08:21:36.894Z,100460.38
2022-08-02T08:24:04.797Z,100462.72
2022-08-02T08:26:31.366Z,100465.34
2022-08-02T08:28:57.875Z,100472.22
2022-08-02T08:31:24.323Z,100471.63
2022-08-02T08:33:50.924Z,100469.66
2022-08-02T08:36:17.459Z,100480.28
2022-08-02T08:38:43.972Z,100473.13
2022-08-02T08:41:10.482Z,100471.91
2022-08-02T08:43:37.276Z,100467.28
2022-08-02T08:46:04.910Z,100470.00
2022-08-02T08:48:33.144Z,100465.28
2022-08-02T08:51:19.335Z,100457.19
2022-08-02T08:53:49.547Z,100460.41
2022-08-02T08:56:16.921Z,100456.38
2022-08-02T08:58:45.447Z,100462.41
2022-08-02T09:01:12.996Z,100466.63
2022-08-02T09:03:39.501Z,100451.47
2022-08-02T09:06:06.179Z,100462.78
2022-08-02T09:08:32.857Z,100459.88
2022-08-02T09:10:59.444Z,100461.00
2022-08-02T09:13:45.249Z,100458.81
2022-08-02T09:16:16.999Z,100453.66
2022-08-02T09:18:46.094Z,100462.94
2022-08-02T09:21:15.033Z,100461.38
2022-08-02T09:23:44.750Z,100467.66
2022-08-02T09:26:13.517Z,100462.25
2022-08-02T09:28:42.494Z,100455.59
2022-08-02T09:31:11.497Z,100454.41
2022-08-02T09:33:40.974Z,100457.47
2022-08-02T09:36:12.659Z,100452.69
2022-08-02T09:38:41.726Z,100445.78
2022-08-02T09:41:21.253Z,100450.28
2022-08-02T09:44:03.499Z,100443.41
2022-08-02T09:46:40.101Z,100435.59
2022-08-02T09:49:09.737Z,100445.09
2022-08-02T09:51:39.228Z,100452.19
2022-08-02T09:54:09.347Z,100445.44
2022-08-02T09:56:46.304Z,100439.63
2022-08-02T09:59:13.876Z,100430.81
2022-08-02T10:01:42.610Z,100430.50
2022-08-02T10:04:21.703Z,100425.88
2022-08-02T10:06:50.412Z,100425.44
2022-08-02T10:09:17.342Z,100429.53
2022-08-02T10:11:44.238Z,100424.38
2022-08-02T10:14:11.481Z,100419.53
2022-08-02T10:16:43.386Z,100426.44
2022-08-02T10:19:11.093Z,100427.78
2022-08-02T10:22:03.260Z,100425.28
2022-08-02T10:24:32.116Z,100425.72
2022-08-02T10:26:59.588Z,100414.88
2022-08-02T10:29:54.215Z,100414.78
2022-08-02T10:32:43.725Z,100402.59
2022-08-02T10:35:20.043Z,100408.91
2022-08-02T10:38:01.086Z,100400.97
2022-08-02T10:40:50.446Z,100406.25
2022-08-02T10:43:36.017Z,100399.81
2022-08-02T10:46:35.599Z,100391.81
2022-08-02T10:49:38.670Z,100390.69
2022-08-02T10:52:02.572Z,100391.81
2022-08-02T10:54:34.927Z,100398.34
2022-08-02T10:57:02.023Z,100389.41
2022-08-02T10:59:36.338Z,100395.75
2022-08-02T11:02:05.891Z,100398.66
2022-08-02T11:04:53.132Z,100390.28
2022-08-02T11:07:31.056Z,100391.81
2022-08-02T11:09:59.306Z,100382.03
2022-08-02T11:12:27.651Z,100371.47
2022-08-02T11:15:07.807Z,100380.44
2022-08-02T11:17:54.210Z,100372.31
2022-08-02T11:20:22.124Z,100368.03
2022-08-02T11:22:51.033Z,100368.19
2022-08-02T11:25:23.849Z,100367.78
2022-08-02T11:27:57.986Z,100371.03
2022-08-02T11:30:27.337Z,100366.84
2022-08-02T11:32:58.590Z,100366.25
2022-08-02T11:35:39.258Z,100363.81
2022-08-02T11:38:16.344Z,100359.19
2022-08-02T11:40:43.612Z,100362.75
2022-08-02T11:43:36.711Z,100361.59
2022-08-02T11:46:04.335Z,100353.16
2022-08-02T11:48:39.578Z,100362.25
2022-08-02T11:51:11.438Z,100357.44
2022-08-02T11:53:50.135Z,100351.31
2022-08-02T11:56:32.828Z,100345.16
2022-08-02T11:59:08.263Z,100343.69
2022-08-02T12:01:45.059Z,100340.69
2022-08-02T12:04:16.835Z,100341.69
2022-08-02T12:06:43.864Z,100346.31
2022-08-02T12:09:18.722Z,100344.78
2022-08-02T12:11:49.209Z,100345.25
2022-08-02T12:14:15.753Z,100345.78
2022-08-02T12:17:00.868Z,100342.63
2022-08-02T12:19:27.848Z,100340.34
2022-08-02T12:22:24.309Z,100340.81
2022-08-02T12:24:56.491Z,100335.97
2022-08-02T12:27:29.763Z,100337.06
2022-08-02T12:30:01.972Z,100336.78
2022-08-02T12:32:29.176Z,100331.59
2022-08-02T12:35:10.776Z,100338.22
2022-08-02T12:37:40.454Z,100331.19
2022-08-02T12:40:25.731Z,100327.63
2022-08-02T12:43:02.366Z,100312.81
2022-08-02T12:45:40.090Z,100317.22
2022-08-02T12:48:09.174Z,100312.81
2022-08-02T12:50:37.852Z,100309.81
2022-08-02T12:53:15.603Z,100305.00
2022-08-02T12:56:02.051Z,100302.41
2022-08-02T12:58:30.669Z,100295.91
2022-08-02T13:01:00.915Z,100287.03
2022-08-02T13:04:07.377Z,100281.22
2022-08-02T13:06:42.188Z,100291.50
2022-08-02T13:09:11.054Z,100285.34
2022-08-02T13:11:37.503Z,100280.22
2022-08-02T13:14:09.558Z,100287.31
2022-08-02T13:16:36.069Z,100278.91
2022-08-02T13:19:02.540Z,100286.34
2022-08-02T13:21:41.106Z,100284.94
2022-08-02T13:24:38.618Z,100277.78
2022-08-02T13:27:04.481Z,100279.28
2022-08-02T13:29:34.548Z,100284.63
2022-08-02T13:32:01.092Z,100282.22
2022-08-02T13:34:27.559Z,100277.34
2022-08-02T13:36:54.050Z,100272.38
2022-08-02T13:39:20.515Z,100266.72
2022-08-02T13:41:47.010Z,100257.06
2022-08-02T13:44:13.479Z,100262.84
2022-08-02T13:46:45.469Z,100251.13
2022-08-02T13:49:19.470Z,100250.09
2022-08-02T13:51:48.209Z,100253.34
2022-08-02T13:54:15.472Z,100245.78
2022-08-02T13:56:42.076Z,100241.81
2022-08-02T13:59:55.197Z,100234.78
2022-08-02T14:01:56.775Z,100236.44
2022-08-02T14:04:24.040Z,100235.25
2022-08-02T14:06:50.658Z,100230.66
2022-08-02T14:09:17.759Z,100225.41
2022-08-02T14:11:45.428Z,100220.66
2022-08-02T14:14:16.603Z,100225.25
2022-08-02T14:16:44.637Z,100227.41
2022-08-02T14:19:15.866Z,100215.66
2022-08-02T14:21:46.010Z,100218.00
2022-08-02T14:24:13.866Z,100215.34
2022-08-02T14:26:40.374Z,100204.25
2022-08-02T14:29:06.939Z,100204.13
2022-08-02T14:31:33.486Z,100203.50
2022-08-02T14:33:59.992Z,100209.56
2022-08-02T14:36:27.388Z,100205.09
2022-08-02T14:38:55.341Z,100202.13
2022-08-02T14:41:22.077Z,100198.94
2022-08-02T14:44:10.034Z,100192.50
2022-08-02T14:46:40.302Z,100194.06
2022-08-02T14:49:08.914Z,100195.03
2022-08-02T14:51:37.319Z,100186.50
2022-08-02T14:54:06.603Z,100185.53
2022-08-02T14:56:35.210Z,100181.38
2022-08-02T14:59:01.899Z,100183.41
2022-08-02T15:01:28.529Z,100182.25
2022-08-02T15:03:55.133Z,100180.38
2022-08-02T15:06:21.694Z,100180.41
2022-08-02T15:08:48.365Z,100179.31
2022-08-02T15:11:14.857Z,100185.16
2022-08-02T15:13:42.548Z,100177.97
2022-08-02T15:16:09.934Z,100172.63
2022-08-02T15:18:36.442Z,100168.88
2022-08-02T15:21:07.968Z,100169.72
2022-08-02T15:23:50.101Z,100164.72
2022-08-02T15:26:16.613Z,100173.59
2022-08-02T15:28:43.049Z,100171.25
2022-08-02T15:31:09.493Z,100168.84
2022-08-02T15:33:35.977Z,100172.56
2022-08-02T15:36:02.509Z,100167.91
2022-08-02T15:38:29.051Z,100167.06
2022-08-02T15:40:55.518Z,100166.28
2022-08-02T15:43:21.980Z,100168.66
2022-08-02T15:45:48.587Z,100165.75
2022-08-02T15:48:15.130Z,100158.59
2022-08-02T15:50:41.815Z,100148.34
2022-08-02T15:53:08.302Z,100143.31
2022-08-02T15:55:39.979Z,100149.09
2022-08-02T15:58:22.336Z,100150.41
2022-08-02T16:00:49.167Z,100151.38
2022-08-02T16:03:16.267Z,100151.47
2022-08-02T16:05:42.824Z,100152.63
2022-08-02T16:08:09.358Z,100149.03
2022-08-02T16:10:36.416Z,100148.91
2022-08-02T16:13:22.195Z,100147.00
2022-08-02T16:15:48.631Z,100145.41
2022-08-02T16:18:15.069Z,100148.25
2022-08-02T16:20:41.533Z,100148.38
2022-08-02T16:23:07.983Z,100140.94
2022-08-02T16:25:37.615Z,100141.22
2022-08-02T16:28:08.142Z,100137.88
2022-08-02T16:30:35.103Z,100139.75
2022-08-02T16:33:02.172Z,100142.09
2022-08-02T16:35:28.887Z,100139.66
2022-08-02T16:37:55.429Z,100134.50
2022-08-02T16:40:22.126Z,100138.81
2022-08-02T16:42:50.573Z,100134.31
2022-08-02T16:45:19.904Z,100117.31
2022-08-02T16:47:55.117Z,100126.38
2022-08-02T16:50:28.132Z,100132.81
2022-08-02T16:52:58.887Z,100139.34
2022-08-02T16:55:30.287Z,100133.63
2022-08-02T16:57:58.031Z,100127.91
2022-08-02T17:00:24.525Z,100121.28
2022-08-02T17:02:50.990Z,100124.03
2022-08-02T17:05:18.122Z,100124.75
2022-08-02T17:10:34.402Z,100127.69
2022-08-02T17:13:10.872Z,100122.91
2022-08-02T17:16:07.747Z,100122.97
2022-08-02T17:18:26.767Z,100125.41
2022-08-02T17:20:53.600Z,100114.00
2022-08-02T17:23:20.074Z,100119.06
2022-08-02T17:28:35.522Z,100115.94
2022-08-02T17:31:12.349Z,100116.69
2022-08-02T17:33:39.558Z,100109.09
2022-08-02T17:36:06.348Z,100108.25
2022-08-02T17:38:36.430Z,100116.50
2022-08-02T17:41:16.615Z,100117.94
2022-08-02T17:43:43.801Z,100114.53
2022-08-02T17:46:11.198Z,100126.03
2022-08-02T17:48:56.073Z,100115.47
2022-08-02T17:52:16.116Z,100122.88
2022-08-02T17:54:10.327Z,100118.59
2022-08-02T17:56:37.000Z,100128.41
2022-08-02T17:59:20.746Z,100127.22
2022-08-02T18:01:52.950Z,100127.91
2022-08-02T18:04:20.062Z,100133.56
2022-08-02T18:06:57.883Z,100134.84
2022-08-02T18:09:26.153Z,100128.19
2022-08-02T18:11:53.963Z,100135.88
2022-08-02T18:14:20.658Z,100128.69
2022-08-02T18:16:48.911Z,100138.63
2022-08-02T18:19:17.335Z,100133.13
2022-08-02T18:21:45.765Z,100134.03
2022-08-02T18:24:12.887Z,100136.09
2022-08-02T18:26:41.168Z,100131.88
2022-08-02T18:29:10.765Z,100133.91
2022-08-02T18:31:40.113Z,100125.84
2022-08-02T18:34:17.291Z,100131.66
2022-08-02T18:36:47.075Z,100134.63
2022-08-02T18:39:14.766Z,100141.09
2022-08-02T18:41:41.242Z,100140.91
2022-08-02T18:44:07.844Z,100143.88
2022-08-02T18:46:35.489Z,100142.50
2022-08-02T18:49:13.518Z,100137.97
2022-08-02T18:51:42.256Z,100146.31
2022-08-02T18:54:08.799Z,100141.38
2022-08-02T18:56:38.896Z,100149.47
2022-08-02T18:59:06.110Z,100138.63
2022-08-02T19:01:34.926Z,100139.16
2022-08-02T19:04:06.217Z,100140.88
2022-08-02T19:06:36.031Z,100140.69
2022-08-02T19:09:10.376Z,100148.56
2022-08-02T19:11:41.298Z,100146.66
2022-08-02T19:14:13.751Z,100148.81
2022-08-02T19:16:46.195Z,100142.69
2022-08-02T19:19:19.485Z,100146.06
2022-08-02T19:22:16.492Z,100152.19
2022-08-02T19:24:33.152Z,100142.81
2022-08-02T19:26:59.775Z,100151.38
2022-08-02T19:29:42.939Z,100150.94
2022-08-02T19:32:41.472Z,100146.28
2022-08-02T19:35:19.967Z,100149.03
2022-08-02T19:37:51.146Z,100160.38
2022-08-02T19:40:23.789Z,100155.78
2022-08-02T19:44:25.766Z,100158.72
2022-08-02T19:45:48.990Z,100153.19
2022-08-02T19:48:16.898Z,100151.69
2022-08-02T19:50:44.254Z,100156.69
2022-08-02T19:53:17.205Z,100164.56
2022-08-02T19:56:01.010Z,100160.19
2022-08-02T19:58:36.597Z,100161.75
2022-08-02T20:01:04.047Z,100156.25
2022-08-02T20:03:52.009Z,100159.19
2022-08-02T20:06:18.025Z,100161.69
2022-08-02T20:08:53.292Z,100148.19
2022-08-02T20:11:25.597Z,100158.00
2022-08-02T20:13:53.405Z,100155.28
2022-08-02T20:16:27.262Z,100152.88
2022-08-02T20:18:55.018Z,100155.88
2022-08-02T20:21:36.546Z,100159.47
2022-08-02T20:26:59.072Z,100154.00
2022-08-02T20:29:44.820Z,100157.75
2022-08-02T20:32:14.610Z,100153.28
2022-08-02T20:34:41.797Z,100150.69
2022-08-02T20:37:59.055Z,100153.28
2022-08-02T20:39:54.796Z,100157.28
2022-08-02T20:42:23.154Z,100161.59
2022-08-02T20:44:54.564Z,100155.13
2022-08-02T20:47:29.100Z,100159.44
2022-08-02T20:50:30.370Z,100160.44
2022-08-02T20:53:00.287Z,100161.91
2022-08-02T20:55:30.819Z,100166.84
2022-08-02T20:58:00.904Z,100174.31
2022-08-02T21:00:28.862Z,100170.16
2022-08-02T21:02:55.464Z,100172.28
2022-08-02T21:05:27.020Z,100169.34
2022-08-02T21:08:13.804Z,100163.88
2022-08-02T21:10:43.653Z,100173.38
2022-08-02T21:15:57.783Z,100179.84
2022-08-02T21:21:14.755Z,100182.53
2022-08-02T21:23:48.288Z,100181.59
2022-08-02T21:26:15.195Z,100181.41
2022-08-02T21:28:46.409Z,100177.84
2022-08-02T21:31:18.379Z,100177.00
2022-08-02T21:33:56.987Z,100172.84
2022-08-02T21:36:31.671Z,100176.53
2022-08-02T21:39:00.002Z,100173.47
2022-08-02T21:41:39.406Z,100172.59
2022-08-02T21:44:21.753Z,100176.47
2022-08-02T21:46:53.256Z,100173.78
2022-08-02T21:49:40.744Z,100175.97
2022-08-02T21:52:09.138Z,100175.63
2022-08-02T21:54:35.690Z,100179.66
2022-08-02T21:57:06.595Z,100171.19
2022-08-02T21:59:35.014Z,100179.44
2022-08-02T22:02:01.695Z,100180.31
2022-08-02T22:04:28.597Z,100187.19
2022-08-02T22:06:56.566Z,100193.47
2022-08-02T22:09:43.917Z,100194.84
2022-08-02T22:12:18.462Z,100194.09
2022-08-02T22:14:49.356Z,100188.66
2022-08-02T22:17:21.684Z,100193.06
2022-08-02T22:20:08.834Z,100188.34
2022-08-02T22:22:39.168Z,100199.44
2022-08-02T22:25:06.165Z,100195.94
2022-08-02T22:28:15.833Z,100193.72
2022-08-02T22:30:23.553Z,100196.63
2022-08-02T22:33:15.402Z,100196.03
2022-08-02T22:35:42.297Z,100204.75
2022-08-02T22:40:55.413Z,100212.53
2022-08-02T22:43:22.939Z,100209.75
2022-08-02T22:45:50.175Z,100215.53
2022-08-02T22:48:16.741Z,100207.53
2022-08-02T22:50:43.442Z,100216.69
2022-08-02T22:53:10.033Z,100209.59
2022-08-02T22:55:41.271Z,100209.31
2022-08-02T22:58:08.691Z,100213.00
2022-08-02T22:58:48.913Z,100126.22
2022-08-02T22:58:49.365Z,100115.09
2022-08-02T22:58:55.405Z,100160.06
2022-08-02T22:59:02.073Z,100175.06
2022-08-02T22:59:11.272Z,100178.25
2022-08-02T23:00:35.206Z,100212.13
2022-08-02T23:03:01.665Z,100208.72
2022-08-02T23:05:29.988Z,100212.72
2022-08-02T23:07:56.502Z,100202.97
2022-08-02T23:10:23.765Z,100201.25
2022-08-02T23:12:50.762Z,100210.09
2022-08-02T23:15:17.207Z,100209.59
2022-08-02T23:18:02.031Z,100198.81
2022-08-02T23:20:28.630Z,100214.91
2022-08-02T23:22:55.855Z,100218.16
2022-08-02T23:25:23.006Z,100219.00
2022-08-02T23:27:51.167Z,100224.31
2022-08-02T23:30:18.724Z,100219.69
2022-08-02T23:32:46.984Z,100222.00
2022-08-02T23:35:16.580Z,100226.84
2022-08-02T23:37:58.998Z,100227.47
2022-08-02T23:40:39.434Z,100223.38
2022-08-02T23:43:14.756Z,100222.97
2022-08-02T23:45:44.303Z,100223.72
2022-08-02T23:48:10.730Z,100222.53
2022-08-02T23:50:37.219Z,100228.16
2022-08-02T23:53:03.811Z,100221.00
2022-08-02T23:55:30.228Z,100221.13
2022-08-02T23:57:56.645Z,100224.13
